Time;durP1;ratioP1;P1;durP2;ratioP2;P2;SDS_P1;SDS_P2;PMS_P1;PMS_P2;Temp;Humidity;BMP_temperature;BMP_pressure;BME280_temperature;BME280_humidity;BME280_pressure;Samples;Min_cycle;Max_cycle;Signal;HPM_P1;HPM_P2
2024/02/17 00:03:47;;;;;;;17.35;6.90;;;10.10;99.90;;;;;;20550024;28;20043;-40
2024/02/17 00:13:47;;;;;;;15.63;6.43;;;10.10;99.90;;;;;;20562791;28;20042;-40
2024/02/17 00:23:48;;;;;;;12.93;7.15;;;10.10;99.90;;;;;;20560118;28;20051;-40
2024/02/17 00:33:49;;;;;;;10.32;6.13;;;10.10;99.90;;;;;;20548906;28;20414;-40
2024/02/17 00:43:49;;;;;;;15.57;7.05;;;10.00;99.90;;;;;;20546800;28;20052;-40
2024/02/17 00:53:50;;;;;;;12.13;7.00;;;9.90;99.90;;;;;;20544420;28;20673;-40
2024/02/17 01:03:50;;;;;;;13.50;6.27;;;9.90;99.90;;;;;;20545907;28;20110;-40
2024/02/17 01:13:51;;;;;;;13.23;5.95;;;10.00;99.90;;;;;;20550715;28;20842;-40
2024/02/17 01:23:52;;;;;;;12.57;5.80;;;10.10;99.90;;;;;;20552093;28;20063;-40
2024/02/17 01:33:52;;;;;;;9.70;5.30;;;10.10;99.90;;;;;;20546345;28;21165;-40
2024/02/17 01:43:53;;;;;;;10.10;4.88;;;10.10;99.90;;;;;;20550861;28;20081;-40
2024/02/17 01:53:55;;;;;;;10.65;4.75;;;10.10;99.90;;;;;;20534029;28;20071;-40
2024/02/17 02:03:57;;;;;;;8.68;4.90;;;10.10;99.90;;;;;;20533550;28;20042;-40
2024/02/17 02:14:13;;;;;;;11.15;4.68;;;10.00;99.90;;;;;;20546857;28;20045;-40
2024/02/17 02:24:14;;;;;;;11.15;4.10;;;10.00;99.90;;;;;;20549174;28;20345;-40
2024/02/17 02:34:15;;;;;;;8.25;4.57;;;10.00;99.90;;;;;;20541657;28;20030;-39
2024/02/17 02:44:16;;;;;;;7.78;3.92;;;9.90;99.90;;;;;;20539081;28;20398;-40
2024/02/17 02:54:18;;;;;;;8.18;4.43;;;9.90;99.90;;;;;;20544786;28;20049;-40
2024/02/17 03:04:19;;;;;;;9.60;4.20;;;9.90;99.90;;;;;;20540184;28;21089;-40
2024/02/17 03:14:20;;;;;;;9.30;4.53;;;9.90;99.90;;;;;;20543578;28;20451;-40
2024/02/17 03:24:20;;;;;;;9.57;4.55;;;9.90;99.90;;;;;;20540111;28;20423;-40
2024/02/17 03:34:22;;;;;;;8.00;4.13;;;9.90;99.90;;;;;;20534920;28;20042;-40
2024/02/17 03:44:23;;;;;;;9.40;4.75;;;9.90;99.90;;;;;;20527977;28;20057;-40
2024/02/17 03:54:24;;;;;;;14.95;4.82;;;9.90;99.90;;;;;;20521483;28;20715;-40
2024/02/17 04:04:25;;;;;;;9.33;4.97;;;9.90;99.90;;;;;;20524800;28;20390;-40
2024/02/17 04:14:26;;;;;;;11.20;4.80;;;9.80;99.90;;;;;;20525948;28;20866;-40
2024/02/17 04:24:26;;;;;;;14.93;6.07;;;9.80;99.90;;;;;;20484369;28;1278165;-40
2024/02/17 04:34:27;;;;;;;13.73;5.85;;;9.80;99.90;;;;;;20528224;28;20640;-40
2024/02/17 04:44:28;;;;;;;14.57;6.13;;;9.80;99.90;;;;;;20535093;28;20050;-40
2024/02/17 04:54:28;;;;;;;9.38;6.07;;;9.70;99.90;;;;;;20538581;28;20474;-40
2024/02/17 05:04:29;;;;;;;14.57;6.97;;;9.70;99.90;;;;;;20526831;28;20403;-40
2024/02/17 05:14:29;;;;;;;12.80;7.20;;;9.70;99.90;;;;;;20518730;28;20089;-40
2024/02/17 05:24:33;;;;;;;13.55;6.93;;;9.70;99.90;;;;;;20523420;28;20034;-40
2024/02/17 05:34:35;;;;;;;16.38;7.47;;;9.70;99.90;;;;;;20529063;28;20058;-40
2024/02/17 05:44:35;;;;;;;14.32;7.07;;;9.60;99.90;;;;;;20552064;28;20620;-40
2024/02/17 05:54:36;;;;;;;16.67;7.80;;;9.60;99.90;;;;;;20549315;28;20039;-40
2024/02/17 06:04:37;;;;;;;15.37;7.40;;;9.60;99.90;;;;;;20558326;28;20597;-40
2024/02/17 06:14:37;;;;;;;18.40;8.05;;;9.50;99.90;;;;;;20542176;28;20585;-40
2024/02/17 06:24:38;;;;;;;18.47;7.77;;;9.50;99.90;;;;;;20531560;28;20046;-39
2024/02/17 06:34:41;;;;;;;18.02;7.75;;;9.50;99.90;;;;;;20531719;28;20039;-40
2024/02/17 06:44:41;;;;;;;16.02;7.55;;;9.50;99.90;;;;;;20532448;28;20129;-40
2024/02/17 06:54:42;;;;;;;17.13;8.13;;;9.40;99.90;;;;;;20531330;28;20276;-40
2024/02/17 07:04:42;;;;;;;16.47;8.17;;;9.30;99.90;;;;;;20529874;28;20045;-40
2024/02/17 07:14:43;;;;;;;15.27;8.40;;;9.30;99.90;;;;;;20529716;28;20039;-40
2024/02/17 07:24:43;;;;;;;23.30;10.27;;;9.30;99.90;;;;;;20527471;28;20051;-40
2024/02/17 07:34:44;;;;;;;14.02;7.43;;;9.30;99.90;;;;;;20529449;28;20046;-40
2024/02/17 07:44:46;;;;;;;20.33;8.38;;;9.30;99.90;;;;;;20524135;28;20031;-40
2024/02/17 07:54:46;;;;;;;18.70;9.15;;;9.40;99.90;;;;;;20533951;28;20049;-40
2024/02/17 08:04:47;;;;;;;17.00;8.50;;;9.50;99.90;;;;;;20526272;28;20395;-40
2024/02/17 08:14:51;;;;;;;20.55;8.35;;;9.60;99.90;;;;;;20524563;28;20805;-40
2024/02/17 08:24:52;;;;;;;19.52;8.68;;;9.70;99.90;;;;;;20527672;28;20054;-40
2024/02/17 08:34:53;;;;;;;23.88;10.07;;;9.80;99.90;;;;;;20522941;28;20086;-40
2024/02/17 08:44:53;;;;;;;20.05;10.00;;;9.90;99.90;;;;;;20522451;28;20279;-40
2024/02/17 08:54:54;;;;;;;19.20;9.00;;;9.90;99.90;;;;;;20522873;28;20080;-40
2024/02/17 09:04:54;;;;;;;21.90;9.57;;;10.00;99.90;;;;;;20518098;28;20462;-40
2024/02/17 09:14:55;;;;;;;19.25;9.48;;;10.30;99.90;;;;;;20519423;28;20035;-40
2024/02/17 09:24:56;;;;;;;17.73;8.73;;;10.30;99.90;;;;;;20505967;28;20054;-40
2024/02/17 09:34:56;;;;;;;18.17;8.93;;;10.40;99.90;;;;;;20521313;28;20041;-40
2024/02/17 09:44:57;;;;;;;21.08;8.60;;;10.50;99.90;;;;;;20514479;28;20074;-40
2024/02/17 09:54:59;;;;;;;16.17;8.50;;;10.70;99.90;;;;;;20524788;28;20027;-40
2024/02/17 10:04:59;;;;;;;20.33;9.02;;;10.70;99.90;;;;;;20523884;28;20493;-40
2024/02/17 10:15:01;;;;;;;22.45;9.48;;;10.80;99.90;;;;;;20519299;28;20034;-40
2024/02/17 10:25:02;;;;;;;17.95;9.13;;;11.00;99.90;;;;;;20526622;28;20082;-40
2024/02/17 10:35:05;;;;;;;20.27;9.32;;;11.20;99.90;;;;;;20490296;28;20034;-40
2024/02/17 10:45:06;;;;;;;17.02;9.75;;;11.20;99.90;;;;;;20540985;28;20039;-40
2024/02/17 10:55:11;;;;;;;20.55;11.77;;;11.40;99.90;;;;;;20536412;28;20197;-40
2024/02/17 11:05:11;;;;;;;22.38;11.32;;;11.50;99.90;;;;;;20534684;28;20518;-40
2024/02/17 11:15:12;;;;;;;19.42;10.13;;;11.70;99.60;;;;;;20536698;28;20462;-40
2024/02/17 11:25:27;;;;;;;17.98;11.60;;;11.70;93.20;;;;;;20545865;28;20156;-40
2024/02/17 11:35:30;;;;;;;23.52;12.48;;;11.90;85.50;;;;;;20555500;28;20041;-40
2024/02/17 11:45:30;;;;;;;22.77;12.25;;;11.90;83.50;;;;;;20561282;28;20046;-40
2024/02/17 11:55:31;;;;;;;21.27;12.60;;;12.00;82.30;;;;;;20564001;28;20041;-40
2024/02/17 12:05:31;;;;;;;21.37;12.20;;;12.10;83.70;;;;;;20565068;28;20038;-40
2024/02/17 12:15:33;;;;;;;22.23;12.85;;;12.00;66.80;;;;;;20546381;28;20548;-40
2024/02/17 12:25:34;;;;;;;19.45;12.02;;;12.10;68.30;;;;;;20543306;28;20038;-40
2024/02/17 12:35:42;;;;;;;20.00;11.90;;;12.20;66.40;;;;;;20553336;28;20042;-40
2024/02/17 12:45:42;;;;;;;21.97;12.43;;;12.10;60.60;;;;;;20546017;28;20050;-40
2024/02/17 12:55:44;;;;;;;19.60;12.43;;;12.00;70.80;;;;;;20556831;28;20054;-40
2024/02/17 13:05:45;;;;;;;21.25;12.55;;;12.10;64.50;;;;;;20548854;28;20038;-40
2024/02/17 13:15:45;;;;;;;19.88;12.73;;;12.10;58.60;;;;;;20544715;28;20041;-40
2024/02/17 13:25:46;;;;;;;18.80;12.10;;;12.20;61.50;;;;;;20522362;28;20065;-40
2024/02/17 13:35:47;;;;;;;14.07;9.27;;;12.60;54.90;;;;;;20467803;28;20533;-40
2024/02/17 13:45:49;;;;;;;11.82;7.28;;;13.00;20.00;;;;;;20497952;28;20055;-40
2024/02/17 13:55:49;;;;;;;13.70;8.23;;;12.90;14.30;;;;;;20485579;28;20061;-40
2024/02/17 14:05:50;;;;;;;16.20;7.97;;;12.90;13.90;;;;;;20527472;28;20341;-40
2024/02/17 14:15:51;;;;;;;13.05;7.78;;;12.80;14.40;;;;;;20525617;28;20522;-40
2024/02/17 14:25:53;;;;;;;16.50;8.60;;;12.70;19.30;;;;;;20528470;28;20066;-40
2024/02/17 14:35:53;;;;;;;11.60;7.30;;;12.80;18.60;;;;;;20534705;28;20065;-40
2024/02/17 14:45:54;;;;;;;12.80;7.87;;;12.70;20.30;;;;;;20529919;28;20367;-40
2024/02/17 14:55:55;;;;;;;10.93;7.03;;;12.60;24.60;;;;;;20533656;28;20042;-40
2024/02/17 15:05:57;;;;;;;11.05;6.63;;;12.70;18.00;;;;;;20529772;28;20054;-40
2024/02/17 15:15:58;;;;;;;9.73;6.32;;;13.10;11.70;;;;;;20526900;28;20035;-39
2024/02/17 15:25:59;;;;;;;11.27;6.68;;;13.10;7.50;;;;;;20533803;28;20049;-39
2024/02/17 15:36:01;;;;;;;14.07;7.60;;;12.90;5.70;;;;;;20515046;28;20034;-40
2024/02/17 15:46:03;;;;;;;11.80;6.60;;;12.70;7.70;;;;;;20526722;28;20061;-40
2024/02/17 15:56:09;;;;;;;8.48;4.95;;;12.60;11.60;;;;;;20523169;28;20114;-40
2024/02/17 16:06:10;;;;;;;11.35;4.35;;;12.40;14.00;;;;;;20513425;28;20047;-40
2024/02/17 16:16:14;;;;;;;9.35;3.63;;;12.30;13.70;;;;;;20513534;28;20062;-40
2024/02/17 16:26:15;;;;;;;7.45;3.10;;;12.30;11.70;;;;;;20523146;28;20145;-40
2024/02/17 16:36:16;;;;;;;7.10;2.58;;;12.10;9.00;;;;;;20532529;28;20055;-40
2024/02/17 16:46:17;;;;;;;11.88;3.08;;;12.00;6.80;;;;;;20546480;28;20217;-40
2024/02/17 16:56:17;;;;;;;10.20;4.43;;;11.90;7.70;;;;;;20555694;28;20125;-40
2024/02/17 17:06:18;;;;;;;13.10;5.30;;;11.80;11.00;;;;;;20551437;28;20542;-40
2024/02/17 17:16:19;;;;;;;11.00;5.25;;;11.80;15.10;;;;;;20531966;28;20046;-40
2024/02/17 17:26:19;;;;;;;12.75;5.40;;;11.80;20.90;;;;;;20528798;28;20763;-40
2024/02/17 17:36:20;;;;;;;15.13;6.60;;;11.80;20.70;;;;;;20529609;28;20045;-40
2024/02/17 17:46:20;;;;;;;14.60;6.00;;;11.70;20.10;;;;;;20547458;28;20089;-40
2024/02/17 17:56:21;;;;;;;12.05;5.55;;;11.60;21.70;;;;;;20543952;28;20518;-40
2024/02/17 18:06:22;;;;;;;16.55;7.57;;;11.60;18.00;;;;;;20553539;28;20047;-40
2024/02/17 18:16:22;;;;;;;12.15;6.47;;;11.50;20.10;;;;;;20558873;28;20037;-40
2024/02/17 18:26:23;;;;;;;11.65;6.93;;;11.50;20.90;;;;;;20558203;28;20054;-40
2024/02/17 18:36:24;;;;;;;16.58;7.25;;;11.50;23.30;;;;;;20556141;28;20380;-40
2024/02/17 18:46:24;;;;;;;16.95;7.25;;;11.50;26.00;;;;;;20557557;28;20070;-40
2024/02/17 18:56:26;;;;;;;14.27;7.97;;;11.50;27.90;;;;;;20557271;28;20539;-40
2024/02/17 19:06:26;;;;;;;17.75;9.20;;;11.50;27.10;;;;;;20552766;28;20043;-40
2024/02/17 19:16:29;;;;;;;14.85;8.50;;;11.60;25.10;;;;;;20547836;28;20168;-40
2024/02/17 19:26:29;;;;;;;14.63;7.43;;;11.70;18.60;;;;;;20554095;28;20066;-40
2024/02/17 19:36:30;;;;;;;12.33;8.17;;;11.70;15.00;;;;;;20547719;28;20462;-40
2024/02/17 19:46:32;;;;;;;17.17;9.30;;;11.80;14.80;;;;;;20538719;28;21082;-40
2024/02/17 19:56:33;;;;;;;19.25;9.43;;;11.80;20.80;;;;;;20541850;28;20034;-40
2024/02/17 20:06:34;;;;;;;16.33;9.00;;;11.60;32.10;;;;;;20536631;28;20238;-40
2024/02/17 20:16:35;;;;;;;15.32;8.27;;;11.40;46.60;;;;;;20546286;28;20038;-40
2024/02/17 20:26:36;;;;;;;16.55;9.68;;;11.30;58.30;;;;;;20537258;28;20543;-40
2024/02/17 20:36:36;;;;;;;19.73;9.52;;;11.30;63.70;;;;;;20545830;28;20047;-40
2024/02/17 20:46:37;;;;;;;19.83;9.80;;;11.20;76.60;;;;;;20554895;28;20054;-40
2024/02/17 20:56:37;;;;;;;16.45;10.52;;;11.10;79.60;;;;;;20559602;28;20046;-40
2024/02/17 21:06:38;;;;;;;19.88;8.48;;;11.20;80.40;;;;;;20545097;28;20038;-40
2024/02/17 21:16:42;;;;;;;22.73;8.43;;;11.20;87.20;;;;;;20531845;28;20031;-40
2024/02/17 21:26:42;;;;;;;15.07;8.35;;;11.20;85.90;;;;;;20543129;28;20037;-40
2024/02/17 21:36:43;;;;;;;18.20;7.45;;;11.30;78.40;;;;;;20541666;28;20462;-40
2024/02/17 21:46:44;;;;;;;17.60;7.82;;;11.20;74.00;;;;;;20537116;28;20050;-40
2024/02/17 21:56:44;;;;;;;18.70;7.45;;;11.20;62.50;;;;;;20539087;28;20039;-40
2024/02/17 22:06:45;;;;;;;14.20;7.32;;;11.20;61.60;;;;;;20537387;28;20072;-40
2024/02/17 22:16:45;;;;;;;15.35;8.43;;;11.20;52.20;;;;;;20537644;28;20786;-40
2024/02/17 22:26:46;;;;;;;17.33;7.93;;;11.20;47.30;;;;;;20544977;28;20046;-40
2024/02/17 22:36:46;;;;;;;14.30;8.03;;;11.10;47.50;;;;;;20532234;28;20043;-40
2024/02/17 22:46:47;;;;;;;15.07;7.10;;;11.10;45.40;;;;;;20531785;28;20466;-40
2024/02/17 22:56:48;;;;;;;15.65;7.75;;;10.90;51.00;;;;;;20533579;28;20031;-39
2024/02/17 23:06:51;;;;;;;19.58;8.43;;;10.90;54.20;;;;;;20532590;28;20145;-40
2024/02/17 23:16:52;;;;;;;15.95;8.50;;;10.90;52.90;;;;;;20534461;28;20031;-39
2024/02/17 23:26:52;;;;;;;20.75;8.88;;;10.90;54.90;;;;;;20533104;28;20106;-40
2024/02/17 23:36:53;;;;;;;13.63;6.70;;;10.80;59.20;;;;;;20540316;28;20030;-40
2024/02/17 23:46:54;;;;;;;12.90;6.50;;;10.90;52.20;;;;;;20530634;28;20497;-40
2024/02/17 23:56:57;;;;;;;16.00;5.68;;;10.80;50.70;;;;;;20532874;28;20513;-39
